sensor_id;sensor_type;location;lat;lon;timestamp;P1;durP1;ratioP1;P2;durP2;ratioP2
9970;SDS011;5026;51.494;11.974;2023-05-21T00:01:22;39.42;;;25.80;;
9970;SDS011;5026;51.494;11.974;2023-05-21T00:03:49;40.92;;;26.98;;
9970;SDS011;5026;51.494;11.974;2023-05-21T00:06:16;40.80;;;24.88;;
9970;SDS011;5026;51.494;11.974;2023-05-21T00:08:45;40.20;;;25.33;;
9970;SDS011;5026;51.494;11.974;2023-05-21T00:11:13;37.55;;;24.73;;
9970;SDS011;5026;51.494;11.974;2023-05-21T00:13:40;40.53;;;24.88;;
9970;SDS011;5026;51.494;11.974;2023-05-21T00:16:07;39.72;;;27.20;;
9970;SDS011;5026;51.494;11.974;2023-05-21T00:18:35;39.40;;;26.23;;
9970;SDS011;5026;51.494;11.974;2023-05-21T00:21:03;42.45;;;26.77;;
9970;SDS011;5026;51.494;11.974;2023-05-21T00:23:30;42.25;;;26.52;;
9970;SDS011;5026;51.494;11.974;2023-05-21T00:25:58;37.67;;;25.90;;
9970;SDS011;5026;51.494;11.974;2023-05-21T00:28:26;42.63;;;26.00;;
9970;SDS011;5026;51.494;11.974;2023-05-21T00:30:53;38.38;;;25.27;;
9970;SDS011;5026;51.494;11.974;2023-05-21T00:33:20;38.38;;;25.30;;
9970;SDS011;5026;51.494;11.974;2023-05-21T00:35:50;45.97;;;27.55;;
9970;SDS011;5026;51.494;11.974;2023-05-21T00:38:17;42.17;;;25.27;;
9970;SDS011;5026;51.494;11.974;2023-05-21T00:40:46;37.50;;;23.75;;
9970;SDS011;5026;51.494;11.974;2023-05-21T00:43:13;39.80;;;24.85;;
9970;SDS011;5026;51.494;11.974;2023-05-21T00:45:42;42.60;;;26.63;;
9970;SDS011;5026;51.494;11.974;2023-05-21T00:48:10;42.88;;;26.38;;
9970;SDS011;5026;51.494;11.974;2023-05-21T00:50:38;48.10;;;26.98;;
9970;SDS011;5026;51.494;11.974;2023-05-21T00:53:06;43.00;;;25.88;;
9970;SDS011;5026;51.494;11.974;2023-05-21T00:55:34;41.65;;;25.13;;
9970;SDS011;5026;51.494;11.974;2023-05-21T00:58:02;40.38;;;24.77;;
9970;SDS011;5026;51.494;11.974;2023-05-21T01:00:30;45.00;;;26.05;;
9970;SDS011;5026;51.494;11.974;2023-05-21T01:03:00;42.78;;;26.23;;
9970;SDS011;5026;51.494;11.974;2023-05-21T01:05:27;39.78;;;24.50;;
9970;SDS011;5026;51.494;11.974;2023-05-21T01:07:54;39.03;;;23.90;;
9970;SDS011;5026;51.494;11.974;2023-05-21T01:10:22;40.88;;;27.05;;
9970;SDS011;5026;51.494;11.974;2023-05-21T01:12:50;43.65;;;26.70;;
9970;SDS011;5026;51.494;11.974;2023-05-21T01:15:18;43.25;;;25.55;;
9970;SDS011;5026;51.494;11.974;2023-05-21T01:17:45;40.90;;;26.40;;
9970;SDS011;5026;51.494;11.974;2023-05-21T01:20:15;40.75;;;27.08;;
9970;SDS011;5026;51.494;11.974;2023-05-21T01:22:47;43.95;;;27.02;;
9970;SDS011;5026;51.494;11.974;2023-05-21T01:25:17;40.55;;;25.50;;
9970;SDS011;5026;51.494;11.974;2023-05-21T01:27:44;40.55;;;27.52;;
9970;SDS011;5026;51.494;11.974;2023-05-21T01:30:11;43.90;;;26.98;;
9970;SDS011;5026;51.494;11.974;2023-05-21T01:32:41;44.92;;;26.50;;
9970;SDS011;5026;51.494;11.974;2023-05-21T01:35:16;40.88;;;26.25;;
9970;SDS011;5026;51.494;11.974;2023-05-21T01:37:50;42.17;;;27.83;;
9970;SDS011;5026;51.494;11.974;2023-05-21T01:40:21;44.25;;;26.67;;
9970;SDS011;5026;51.494;11.974;2023-05-21T01:42:51;42.78;;;25.55;;
9970;SDS011;5026;51.494;11.974;2023-05-21T01:45:18;46.05;;;27.95;;
9970;SDS011;5026;51.494;11.974;2023-05-21T01:47:48;41.90;;;28.27;;
9970;SDS011;5026;51.494;11.974;2023-05-21T01:50:17;43.47;;;28.30;;
9970;SDS011;5026;51.494;11.974;2023-05-21T01:52:49;45.00;;;27.00;;
9970;SDS011;5026;51.494;11.974;2023-05-21T01:55:17;44.03;;;27.13;;
9970;SDS011;5026;51.494;11.974;2023-05-21T01:57:49;44.35;;;29.17;;
9970;SDS011;5026;51.494;11.974;2023-05-21T02:00:17;48.57;;;29.37;;
9970;SDS011;5026;51.494;11.974;2023-05-21T02:02:45;45.43;;;28.47;;
9970;SDS011;5026;51.494;11.974;2023-05-21T02:05:12;42.53;;;27.95;;
9970;SDS011;5026;51.494;11.974;2023-05-21T02:07:39;46.28;;;28.20;;
9970;SDS011;5026;51.494;11.974;2023-05-21T02:10:09;40.78;;;26.63;;
9970;SDS011;5026;51.494;11.974;2023-05-21T02:12:37;42.53;;;27.92;;
9970;SDS011;5026;51.494;11.974;2023-05-21T02:15:04;49.55;;;28.35;;
9970;SDS011;5026;51.494;11.974;2023-05-21T02:17:31;44.88;;;27.83;;
9970;SDS011;5026;51.494;11.974;2023-05-21T02:19:59;45.28;;;26.67;;
9970;SDS011;5026;51.494;11.974;2023-05-21T02:22:35;45.92;;;26.80;;
9970;SDS011;5026;51.494;11.974;2023-05-21T02:25:02;48.72;;;27.15;;
9970;SDS011;5026;51.494;11.974;2023-05-21T02:27:31;44.72;;;28.73;;
9970;SDS011;5026;51.494;11.974;2023-05-21T02:29:59;45.47;;;27.55;;
9970;SDS011;5026;51.494;11.974;2023-05-21T02:32:26;45.08;;;27.92;;
9970;SDS011;5026;51.494;11.974;2023-05-21T02:34:53;45.28;;;28.73;;
9970;SDS011;5026;51.494;11.974;2023-05-21T02:37:20;47.10;;;28.20;;
9970;SDS011;5026;51.494;11.974;2023-05-21T02:39:47;48.75;;;27.55;;
9970;SDS011;5026;51.494;11.974;2023-05-21T02:42:14;44.85;;;28.10;;
9970;SDS011;5026;51.494;11.974;2023-05-21T02:44:43;45.73;;;29.60;;
9970;SDS011;5026;51.494;11.974;2023-05-21T02:47:11;46.57;;;27.53;;
9970;SDS011;5026;51.494;11.974;2023-05-21T02:49:38;48.07;;;28.93;;
9970;SDS011;5026;51.494;11.974;2023-05-21T02:52:05;46.42;;;27.60;;
9970;SDS011;5026;51.494;11.974;2023-05-21T02:54:32;50.30;;;30.20;;
9970;SDS011;5026;51.494;11.974;2023-05-21T02:56:59;44.20;;;27.80;;
9970;SDS011;5026;51.494;11.974;2023-05-21T02:59:26;46.28;;;28.98;;
9970;SDS011;5026;51.494;11.974;2023-05-21T03:01:55;53.10;;;31.58;;
9970;SDS011;5026;51.494;11.974;2023-05-21T03:04:22;51.25;;;30.10;;
9970;SDS011;5026;51.494;11.974;2023-05-21T03:06:52;47.88;;;29.35;;
9970;SDS011;5026;51.494;11.974;2023-05-21T03:09:19;44.45;;;30.13;;
9970;SDS011;5026;51.494;11.974;2023-05-21T03:11:46;50.88;;;30.15;;
9970;SDS011;5026;51.494;11.974;2023-05-21T03:14:13;50.00;;;28.75;;
9970;SDS011;5026;51.494;11.974;2023-05-21T03:16:41;47.97;;;30.67;;
9970;SDS011;5026;51.494;11.974;2023-05-21T03:19:10;46.42;;;29.50;;
9970;SDS011;5026;51.494;11.974;2023-05-21T03:21:37;49.63;;;30.55;;
9970;SDS011;5026;51.494;11.974;2023-05-21T03:24:05;47.85;;;29.60;;
9970;SDS011;5026;51.494;11.974;2023-05-21T03:26:32;48.35;;;31.92;;
9970;SDS011;5026;51.494;11.974;2023-05-21T03:28:59;50.97;;;29.70;;
9970;SDS011;5026;51.494;11.974;2023-05-21T03:31:26;49.22;;;29.30;;
9970;SDS011;5026;51.494;11.974;2023-05-21T03:33:53;47.20;;;30.63;;
9970;SDS011;5026;51.494;11.974;2023-05-21T03:36:22;48.17;;;28.67;;
9970;SDS011;5026;51.494;11.974;2023-05-21T03:38:48;46.65;;;28.02;;
9970;SDS011;5026;51.494;11.974;2023-05-21T03:41:15;45.17;;;28.92;;
9970;SDS011;5026;51.494;11.974;2023-05-21T03:43:42;47.25;;;28.83;;
9970;SDS011;5026;51.494;11.974;2023-05-21T03:46:09;46.20;;;28.63;;
9970;SDS011;5026;51.494;11.974;2023-05-21T03:48:36;47.23;;;27.83;;
9970;SDS011;5026;51.494;11.974;2023-05-21T03:51:03;51.33;;;29.23;;
9970;SDS011;5026;51.494;11.974;2023-05-21T03:53:33;51.63;;;28.70;;
9970;SDS011;5026;51.494;11.974;2023-05-21T03:56:00;51.35;;;32.17;;
9970;SDS011;5026;51.494;11.974;2023-05-21T03:58:27;48.50;;;29.35;;
9970;SDS011;5026;51.494;11.974;2023-05-21T04:00:54;50.30;;;30.67;;
9970;SDS011;5026;51.494;11.974;2023-05-21T04:03:21;52.15;;;31.60;;
9970;SDS011;5026;51.494;11.974;2023-05-21T04:05:49;47.70;;;29.92;;
9970;SDS011;5026;51.494;11.974;2023-05-21T04:08:16;49.17;;;30.03;;
9970;SDS011;5026;51.494;11.974;2023-05-21T04:10:45;47.20;;;28.83;;
9970;SDS011;5026;51.494;11.974;2023-05-21T04:13:12;49.85;;;31.48;;
9970;SDS011;5026;51.494;11.974;2023-05-21T04:15:39;50.97;;;29.80;;
9970;SDS011;5026;51.494;11.974;2023-05-21T04:18:07;49.28;;;29.60;;
9970;SDS011;5026;51.494;11.974;2023-05-21T04:20:34;46.70;;;29.38;;
9970;SDS011;5026;51.494;11.974;2023-05-21T04:23:01;45.78;;;28.17;;
9970;SDS011;5026;51.494;11.974;2023-05-21T04:25:28;52.15;;;30.50;;
9970;SDS011;5026;51.494;11.974;2023-05-21T04:27:57;44.33;;;28.40;;
9970;SDS011;5026;51.494;11.974;2023-05-21T04:30:23;46.25;;;29.20;;
9970;SDS011;5026;51.494;11.974;2023-05-21T04:32:51;48.78;;;29.55;;
9970;SDS011;5026;51.494;11.974;2023-05-21T04:35:18;49.50;;;30.95;;
9970;SDS011;5026;51.494;11.974;2023-05-21T04:37:45;48.55;;;31.25;;
9970;SDS011;5026;51.494;11.974;2023-05-21T04:40:12;48.28;;;28.15;;
9970;SDS011;5026;51.494;11.974;2023-05-21T04:42:42;46.58;;;30.92;;
9970;SDS011;5026;51.494;11.974;2023-05-21T04:45:11;47.80;;;28.65;;
9970;SDS011;5026;51.494;11.974;2023-05-21T04:47:39;50.88;;;29.63;;
9970;SDS011;5026;51.494;11.974;2023-05-21T04:50:07;44.05;;;28.25;;
9970;SDS011;5026;51.494;11.974;2023-05-21T04:52:34;45.53;;;28.10;;
9970;SDS011;5026;51.494;11.974;2023-05-21T04:55:02;45.58;;;28.77;;
9970;SDS011;5026;51.494;11.974;2023-05-21T04:57:29;45.50;;;27.65;;
9970;SDS011;5026;51.494;11.974;2023-05-21T04:59:57;45.10;;;27.50;;
9970;SDS011;5026;51.494;11.974;2023-05-21T05:02:25;44.08;;;28.10;;
9970;SDS011;5026;51.494;11.974;2023-05-21T05:04:52;43.30;;;28.48;;
9970;SDS011;5026;51.494;11.974;2023-05-21T05:07:19;44.78;;;28.08;;
9970;SDS011;5026;51.494;11.974;2023-05-21T05:09:46;43.75;;;28.63;;
9970;SDS011;5026;51.494;11.974;2023-05-21T05:12:13;45.65;;;28.27;;
9970;SDS011;5026;51.494;11.974;2023-05-21T05:14:40;42.40;;;26.27;;
9970;SDS011;5026;51.494;11.974;2023-05-21T05:17:07;46.55;;;29.77;;
9970;SDS011;5026;51.494;11.974;2023-05-21T05:19:36;45.33;;;28.80;;
9970;SDS011;5026;51.494;11.974;2023-05-21T05:22:03;40.78;;;26.88;;
9970;SDS011;5026;51.494;11.974;2023-05-21T05:24:31;40.47;;;26.50;;
9970;SDS011;5026;51.494;11.974;2023-05-21T05:26:57;41.90;;;25.50;;
9970;SDS011;5026;51.494;11.974;2023-05-21T05:29:24;39.97;;;26.98;;
9970;SDS011;5026;51.494;11.974;2023-05-21T05:31:51;41.55;;;27.77;;
9970;SDS011;5026;51.494;11.974;2023-05-21T05:34:18;40.05;;;26.20;;
9970;SDS011;5026;51.494;11.974;2023-05-21T05:36:47;39.08;;;24.60;;
9970;SDS011;5026;51.494;11.974;2023-05-21T05:39:14;42.08;;;25.42;;
9970;SDS011;5026;51.494;11.974;2023-05-21T05:41:40;38.80;;;25.65;;
9970;SDS011;5026;51.494;11.974;2023-05-21T05:44:07;40.03;;;25.08;;
9970;SDS011;5026;51.494;11.974;2023-05-21T05:46:34;39.58;;;25.20;;
9970;SDS011;5026;51.494;11.974;2023-05-21T05:49:01;37.55;;;23.30;;
9970;SDS011;5026;51.494;11.974;2023-05-21T05:51:28;39.83;;;23.83;;
9970;SDS011;5026;51.494;11.974;2023-05-21T05:53:57;33.70;;;22.88;;
9970;SDS011;5026;51.494;11.974;2023-05-21T05:56:24;35.85;;;22.23;;
9970;SDS011;5026;51.494;11.974;2023-05-21T05:58:51;28.73;;;20.60;;
9970;SDS011;5026;51.494;11.974;2023-05-21T06:01:18;28.88;;;21.80;;
9970;SDS011;5026;51.494;11.974;2023-05-21T06:03:46;29.65;;;20.80;;
9970;SDS011;5026;51.494;11.974;2023-05-21T06:06:13;33.30;;;22.42;;
9970;SDS011;5026;51.494;11.974;2023-05-21T06:08:41;34.08;;;23.38;;
9970;SDS011;5026;51.494;11.974;2023-05-21T06:11:09;36.20;;;23.77;;
9970;SDS011;5026;51.494;11.974;2023-05-21T06:13:36;37.63;;;22.88;;
9970;SDS011;5026;51.494;11.974;2023-05-21T06:16:03;36.95;;;24.60;;
9970;SDS011;5026;51.494;11.974;2023-05-21T06:18:31;36.70;;;23.63;;
9970;SDS011;5026;51.494;11.974;2023-05-21T06:20:58;33.13;;;23.00;;
9970;SDS011;5026;51.494;11.974;2023-05-21T06:23:25;34.83;;;23.52;;
9970;SDS011;5026;51.494;11.974;2023-05-21T06:25:52;30.13;;;20.95;;
9970;SDS011;5026;51.494;11.974;2023-05-21T06:28:20;32.60;;;22.48;;
9970;SDS011;5026;51.494;11.974;2023-05-21T06:30:47;33.92;;;22.90;;
9970;SDS011;5026;51.494;11.974;2023-05-21T06:33:14;32.95;;;22.55;;
9970;SDS011;5026;51.494;11.974;2023-05-21T06:35:41;29.13;;;21.02;;
9970;SDS011;5026;51.494;11.974;2023-05-21T06:38:08;29.60;;;21.30;;
9970;SDS011;5026;51.494;11.974;2023-05-21T06:40:35;29.40;;;20.92;;
9970;SDS011;5026;51.494;11.974;2023-05-21T06:43:02;28.55;;;21.27;;
9970;SDS011;5026;51.494;11.974;2023-05-21T06:45:31;29.17;;;20.83;;
9970;SDS011;5026;51.494;11.974;2023-05-21T06:47:58;28.77;;;21.60;;
9970;SDS011;5026;51.494;11.974;2023-05-21T06:50:25;28.63;;;21.52;;
9970;SDS011;5026;51.494;11.974;2023-05-21T06:52:55;27.05;;;19.75;;
9970;SDS011;5026;51.494;11.974;2023-05-21T06:55:34;25.85;;;19.48;;
9970;SDS011;5026;51.494;11.974;2023-05-21T06:58:01;28.38;;;20.88;;
9970;SDS011;5026;51.494;11.974;2023-05-21T07:00:28;26.08;;;20.05;;
9970;SDS011;5026;51.494;11.974;2023-05-21T07:02:57;29.48;;;21.13;;
9970;SDS011;5026;51.494;11.974;2023-05-21T07:05:24;28.10;;;20.88;;
9970;SDS011;5026;51.494;11.974;2023-05-21T07:07:51;29.33;;;20.95;;
9970;SDS011;5026;51.494;11.974;2023-05-21T07:10:18;35.17;;;20.98;;
9970;SDS011;5026;51.494;11.974;2023-05-21T07:12:45;27.95;;;21.67;;
9970;SDS011;5026;51.494;11.974;2023-05-21T07:15:13;31.88;;;21.90;;
9970;SDS011;5026;51.494;11.974;2023-05-21T07:17:40;28.55;;;21.33;;
9970;SDS011;5026;51.494;11.974;2023-05-21T07:20:09;29.25;;;20.70;;
9970;SDS011;5026;51.494;11.974;2023-05-21T07:22:37;30.25;;;21.92;;
9970;SDS011;5026;51.494;11.974;2023-05-21T07:25:05;29.10;;;21.88;;
9970;SDS011;5026;51.494;11.974;2023-05-21T07:27:32;31.70;;;21.75;;
9970;SDS011;5026;51.494;11.974;2023-05-21T07:29:59;29.98;;;21.80;;
9970;SDS011;5026;51.494;11.974;2023-05-21T07:32:27;29.92;;;21.55;;
9970;SDS011;5026;51.494;11.974;2023-05-21T07:34:54;27.55;;;19.88;;
9970;SDS011;5026;51.494;11.974;2023-05-21T07:37:23;24.45;;;18.92;;
9970;SDS011;5026;51.494;11.974;2023-05-21T07:39:51;27.25;;;20.88;;
9970;SDS011;5026;51.494;11.974;2023-05-21T07:42:19;26.92;;;21.00;;
9970;SDS011;5026;51.494;11.974;2023-05-21T07:44:46;30.25;;;21.85;;
9970;SDS011;5026;51.494;11.974;2023-05-21T07:47:12;28.85;;;20.05;;
9970;SDS011;5026;51.494;11.974;2023-05-21T07:49:40;27.10;;;20.45;;
9970;SDS011;5026;51.494;11.974;2023-05-21T07:52:07;27.92;;;21.67;;
9970;SDS011;5026;51.494;11.974;2023-05-21T07:54:35;24.98;;;20.35;;
9970;SDS011;5026;51.494;11.974;2023-05-21T07:57:02;27.58;;;21.40;;
9970;SDS011;5026;51.494;11.974;2023-05-21T07:59:29;26.95;;;21.33;;
9970;SDS011;5026;51.494;11.974;2023-05-21T08:01:57;26.60;;;20.15;;
9970;SDS011;5026;51.494;11.974;2023-05-21T08:04:24;25.67;;;20.23;;
9970;SDS011;5026;51.494;11.974;2023-05-21T08:06:51;23.83;;;19.08;;
9970;SDS011;5026;51.494;11.974;2023-05-21T08:09:18;27.05;;;18.40;;
9970;SDS011;5026;51.494;11.974;2023-05-21T08:11:47;22.42;;;19.75;;
9970;SDS011;5026;51.494;11.974;2023-05-21T08:14:13;29.42;;;20.88;;
9970;SDS011;5026;51.494;11.974;2023-05-21T08:16:41;22.08;;;17.98;;
9970;SDS011;5026;51.494;11.974;2023-05-21T08:19:09;22.98;;;17.98;;
9970;SDS011;5026;51.494;11.974;2023-05-21T08:21:36;25.88;;;18.55;;
9970;SDS011;5026;51.494;11.974;2023-05-21T08:24:03;21.33;;;19.05;;
9970;SDS011;5026;51.494;11.974;2023-05-21T08:26:30;23.95;;;19.63;;
9970;SDS011;5026;51.494;11.974;2023-05-21T08:28:59;26.50;;;20.10;;
9970;SDS011;5026;51.494;11.974;2023-05-21T08:31:26;22.70;;;18.20;;
9970;SDS011;5026;51.494;11.974;2023-05-21T08:33:53;23.33;;;17.63;;
9970;SDS011;5026;51.494;11.974;2023-05-21T08:36:21;24.40;;;18.67;;
9970;SDS011;5026;51.494;11.974;2023-05-21T08:38:48;20.23;;;17.05;;
9970;SDS011;5026;51.494;11.974;2023-05-21T08:41:15;22.75;;;18.52;;
9970;SDS011;5026;51.494;11.974;2023-05-21T08:43:47;22.17;;;18.25;;
9970;SDS011;5026;51.494;11.974;2023-05-21T08:46:17;22.95;;;18.48;;
9970;SDS011;5026;51.494;11.974;2023-05-21T08:48:48;19.85;;;16.98;;
9970;SDS011;5026;51.494;11.974;2023-05-21T08:51:18;22.67;;;17.15;;
9970;SDS011;5026;51.494;11.974;2023-05-21T08:53:47;24.15;;;17.50;;
9970;SDS011;5026;51.494;11.974;2023-05-21T08:56:18;21.88;;;18.27;;
9970;SDS011;5026;51.494;11.974;2023-05-21T08:58:48;21.63;;;17.60;;
9970;SDS011;5026;51.494;11.974;2023-05-21T09:01:18;18.35;;;15.88;;
9970;SDS011;5026;51.494;11.974;2023-05-21T09:03:46;19.92;;;17.42;;
9970;SDS011;5026;51.494;11.974;2023-05-21T09:06:15;18.77;;;15.65;;
9970;SDS011;5026;51.494;11.974;2023-05-21T09:08:43;19.42;;;14.20;;
9970;SDS011;5026;51.494;11.974;2023-05-21T09:11:11;20.63;;;16.35;;
9970;SDS011;5026;51.494;11.974;2023-05-21T09:13:39;18.83;;;15.80;;
9970;SDS011;5026;51.494;11.974;2023-05-21T09:16:06;19.30;;;14.70;;
9970;SDS011;5026;51.494;11.974;2023-05-21T09:18:37;22.08;;;14.45;;
9970;SDS011;5026;51.494;11.974;2023-05-21T09:23:52;19.52;;;15.23;;
9970;SDS011;5026;51.494;11.974;2023-05-21T09:26:20;19.02;;;15.30;;
9970;SDS011;5026;51.494;11.974;2023-05-21T09:28:47;17.10;;;14.65;;
9970;SDS011;5026;51.494;11.974;2023-05-21T09:31:14;20.63;;;15.68;;
9970;SDS011;5026;51.494;11.974;2023-05-21T09:33:45;17.90;;;15.70;;
9970;SDS011;5026;51.494;11.974;2023-05-21T09:36:13;17.58;;;15.00;;
9970;SDS011;5026;51.494;11.974;2023-05-21T09:38:40;18.10;;;15.82;;
9970;SDS011;5026;51.494;11.974;2023-05-21T09:41:07;18.30;;;15.05;;
9970;SDS011;5026;51.494;11.974;2023-05-21T09:43:35;18.20;;;14.65;;
9970;SDS011;5026;51.494;11.974;2023-05-21T09:46:02;19.85;;;14.98;;
9970;SDS011;5026;51.494;11.974;2023-05-21T09:48:33;18.42;;;15.68;;
9970;SDS011;5026;51.494;11.974;2023-05-21T09:51:09;19.20;;;14.93;;
9970;SDS011;5026;51.494;11.974;2023-05-21T09:53:47;18.58;;;14.98;;
9970;SDS011;5026;51.494;11.974;2023-05-21T09:56:17;16.42;;;14.50;;
9970;SDS011;5026;51.494;11.974;2023-05-21T09:58:47;17.67;;;13.73;;
9970;SDS011;5026;51.494;11.974;2023-05-21T10:01:17;17.20;;;14.07;;
9970;SDS011;5026;51.494;11.974;2023-05-21T10:03:45;18.27;;;14.77;;
9970;SDS011;5026;51.494;11.974;2023-05-21T10:06:17;19.70;;;15.10;;
9970;SDS011;5026;51.494;11.974;2023-05-21T10:08:45;18.42;;;14.63;;
9970;SDS011;5026;51.494;11.974;2023-05-21T10:11:17;19.80;;;15.05;;
9970;SDS011;5026;51.494;11.974;2023-05-21T10:13:47;19.65;;;14.07;;
9970;SDS011;5026;51.494;11.974;2023-05-21T10:16:22;16.70;;;14.75;;
9970;SDS011;5026;51.494;11.974;2023-05-21T10:18:49;17.92;;;14.07;;
9970;SDS011;5026;51.494;11.974;2023-05-21T10:21:21;19.77;;;14.27;;
9970;SDS011;5026;51.494;11.974;2023-05-21T10:23:50;22.08;;;15.65;;
9970;SDS011;5026;51.494;11.974;2023-05-21T10:26:18;17.73;;;14.20;;
9970;SDS011;5026;51.494;11.974;2023-05-21T10:28:47;17.38;;;14.55;;
9970;SDS011;5026;51.494;11.974;2023-05-21T10:31:15;18.45;;;14.20;;
9970;SDS011;5026;51.494;11.974;2023-05-21T10:33:43;21.55;;;14.68;;
9970;SDS011;5026;51.494;11.974;2023-05-21T10:36:10;20.02;;;13.68;;
9970;SDS011;5026;51.494;11.974;2023-05-21T10:38:40;19.38;;;14.52;;
9970;SDS011;5026;51.494;11.974;2023-05-21T10:41:09;16.30;;;13.45;;
9970;SDS011;5026;51.494;11.974;2023-05-21T10:43:42;17.60;;;14.45;;
9970;SDS011;5026;51.494;11.974;2023-05-21T10:46:16;15.00;;;12.40;;
9970;SDS011;5026;51.494;11.974;2023-05-21T10:49:18;13.65;;;11.70;;
9970;SDS011;5026;51.494;11.974;2023-05-21T10:52:03;17.50;;;12.40;;
9970;SDS011;5026;51.494;11.974;2023-05-21T10:57:37;16.65;;;12.40;;
9970;SDS011;5026;51.494;11.974;2023-05-21T11:00:23;14.65;;;11.27;;
9970;SDS011;5026;51.494;11.974;2023-05-21T11:02:52;14.48;;;11.93;;
9970;SDS011;5026;51.494;11.974;2023-05-21T11:05:33;15.65;;;11.88;;
9970;SDS011;5026;51.494;11.974;2023-05-21T11:08:05;13.82;;;11.65;;
9970;SDS011;5026;51.494;11.974;2023-05-21T11:10:51;15.85;;;12.25;;
9970;SDS011;5026;51.494;11.974;2023-05-21T11:13:19;12.65;;;10.40;;
9970;SDS011;5026;51.494;11.974;2023-05-21T11:16:03;15.98;;;12.00;;
9970;SDS011;5026;51.494;11.974;2023-05-21T11:21:30;15.02;;;11.25;;
9970;SDS011;5026;51.494;11.974;2023-05-21T11:24:02;14.82;;;11.68;;
9970;SDS011;5026;51.494;11.974;2023-05-21T11:29:35;11.68;;;9.15;;
9970;SDS011;5026;51.494;11.974;2023-05-21T11:32:12;12.50;;;9.27;;
9970;SDS011;5026;51.494;11.974;2023-05-21T11:34:42;12.57;;;11.00;;
9970;SDS011;5026;51.494;11.974;2023-05-21T11:37:25;12.35;;;9.80;;
9970;SDS011;5026;51.494;11.974;2023-05-21T11:39:54;12.23;;;9.73;;
9970;SDS011;5026;51.494;11.974;2023-05-21T11:42:33;10.85;;;8.48;;
9970;SDS011;5026;51.494;11.974;2023-05-21T11:45:06;8.13;;;7.32;;
9970;SDS011;5026;51.494;11.974;2023-05-21T11:47:34;12.43;;;7.60;;
9970;SDS011;5026;51.494;11.974;2023-05-21T11:50:02;9.70;;;7.95;;
9970;SDS011;5026;51.494;11.974;2023-05-21T11:52:30;9.32;;;7.72;;
9970;SDS011;5026;51.494;11.974;2023-05-21T11:54:57;7.97;;;7.18;;
9970;SDS011;5026;51.494;11.974;2023-05-21T11:57:26;8.60;;;7.05;;
9970;SDS011;5026;51.494;11.974;2023-05-21T11:59:56;11.45;;;7.50;;
9970;SDS011;5026;51.494;11.974;2023-05-21T12:02:25;11.00;;;7.80;;
9970;SDS011;5026;51.494;11.974;2023-05-21T12:04:53;10.98;;;7.68;;
9970;SDS011;5026;51.494;11.974;2023-05-21T12:07:25;10.27;;;7.22;;
9970;SDS011;5026;51.494;11.974;2023-05-21T12:09:52;8.48;;;7.35;;
9970;SDS011;5026;51.494;11.974;2023-05-21T12:12:21;8.38;;;7.20;;
9970;SDS011;5026;51.494;11.974;2023-05-21T12:14:51;8.70;;;7.38;;
9970;SDS011;5026;51.494;11.974;2023-05-21T12:17:21;8.43;;;7.18;;
9970;SDS011;5026;51.494;11.974;2023-05-21T12:19:51;8.95;;;8.02;;
9970;SDS011;5026;51.494;11.974;2023-05-21T12:22:19;9.40;;;7.50;;
9970;SDS011;5026;51.494;11.974;2023-05-21T12:24:47;11.93;;;7.22;;
9970;SDS011;5026;51.494;11.974;2023-05-21T12:27:14;10.13;;;7.95;;
9970;SDS011;5026;51.494;11.974;2023-05-21T12:29:42;9.95;;;8.27;;
9970;SDS011;5026;51.494;11.974;2023-05-21T12:32:11;9.02;;;8.15;;
9970;SDS011;5026;51.494;11.974;2023-05-21T12:34:41;10.23;;;8.13;;
9970;SDS011;5026;51.494;11.974;2023-05-21T12:37:10;8.93;;;7.97;;
9970;SDS011;5026;51.494;11.974;2023-05-21T12:39:42;8.95;;;7.45;;
9970;SDS011;5026;51.494;11.974;2023-05-21T12:42:10;8.93;;;8.02;;
9970;SDS011;5026;51.494;11.974;2023-05-21T12:44:37;9.73;;;7.95;;
9970;SDS011;5026;51.494;11.974;2023-05-21T12:47:06;8.93;;;7.97;;
9970;SDS011;5026;51.494;11.974;2023-05-21T12:49:34;10.52;;;7.85;;
9970;SDS011;5026;51.494;11.974;2023-05-21T12:52:04;9.18;;;8.23;;
9970;SDS011;5026;51.494;11.974;2023-05-21T12:54:35;8.55;;;7.65;;
9970;SDS011;5026;51.494;11.974;2023-05-21T12:57:06;9.98;;;7.97;;
9970;SDS011;5026;51.494;11.974;2023-05-21T12:59:44;9.70;;;7.82;;
9970;SDS011;5026;51.494;11.974;2023-05-21T13:02:14;12.05;;;8.43;;
9970;SDS011;5026;51.494;11.974;2023-05-21T13:04:41;13.70;;;9.45;;
9970;SDS011;5026;51.494;11.974;2023-05-21T13:07:09;14.40;;;8.80;;
9970;SDS011;5026;51.494;11.974;2023-05-21T13:09:36;11.50;;;8.75;;
9970;SDS011;5026;51.494;11.974;2023-05-21T13:12:03;11.05;;;9.52;;
9970;SDS011;5026;51.494;11.974;2023-05-21T13:14:31;10.90;;;9.00;;
9970;SDS011;5026;51.494;11.974;2023-05-21T13:16:58;11.02;;;8.88;;
9970;SDS011;5026;51.494;11.974;2023-05-21T13:19:25;9.80;;;8.75;;
9970;SDS011;5026;51.494;11.974;2023-05-21T13:21:52;11.52;;;8.75;;
9970;SDS011;5026;51.494;11.974;2023-05-21T13:24:21;10.32;;;9.02;;
9970;SDS011;5026;51.494;11.974;2023-05-21T13:26:48;9.80;;;8.52;;
9970;SDS011;5026;51.494;11.974;2023-05-21T13:29:15;15.43;;;9.07;;
9970;SDS011;5026;51.494;11.974;2023-05-21T13:31:42;9.82;;;8.82;;
9970;SDS011;5026;51.494;11.974;2023-05-21T13:34:10;11.32;;;8.10;;
9970;SDS011;5026;51.494;11.974;2023-05-21T13:36:37;10.90;;;9.40;;
9970;SDS011;5026;51.494;11.974;2023-05-21T13:39:04;12.68;;;9.07;;
9970;SDS011;5026;51.494;11.974;2023-05-21T13:41:33;11.52;;;9.00;;
9970;SDS011;5026;51.494;11.974;2023-05-21T13:44:00;10.88;;;9.10;;
9970;SDS011;5026;51.494;11.974;2023-05-21T13:46:27;16.95;;;9.18;;
9970;SDS011;5026;51.494;11.974;2023-05-21T13:48:54;10.07;;;8.82;;
9970;SDS011;5026;51.494;11.974;2023-05-21T13:51:22;11.02;;;9.05;;
9970;SDS011;5026;51.494;11.974;2023-05-21T13:53:49;10.75;;;8.32;;
9970;SDS011;5026;51.494;11.974;2023-05-21T13:56:16;10.77;;;8.88;;
9970;SDS011;5026;51.494;11.974;2023-05-21T13:58:46;9.98;;;8.90;;
9970;SDS011;5026;51.494;11.974;2023-05-21T14:01:13;12.10;;;8.80;;
9970;SDS011;5026;51.494;11.974;2023-05-21T14:03:40;11.65;;;8.60;;
9970;SDS011;5026;51.494;11.974;2023-05-21T14:06:08;10.43;;;8.82;;
9970;SDS011;5026;51.494;11.974;2023-05-21T14:08:36;10.27;;;9.18;;
9970;SDS011;5026;51.494;11.974;2023-05-21T14:11:03;10.15;;;8.93;;
9970;SDS011;5026;51.494;11.974;2023-05-21T14:13:30;11.02;;;8.60;;
9970;SDS011;5026;51.494;11.974;2023-05-21T14:15:59;10.07;;;9.07;;
9970;SDS011;5026;51.494;11.974;2023-05-21T14:18:26;10.95;;;9.85;;
9970;SDS011;5026;51.494;11.974;2023-05-21T14:20:53;11.90;;;9.50;;
9970;SDS011;5026;51.494;11.974;2023-05-21T14:23:20;10.23;;;9.13;;
9970;SDS011;5026;51.494;11.974;2023-05-21T14:25:47;12.00;;;9.68;;
9970;SDS011;5026;51.494;11.974;2023-05-21T14:28:14;14.00;;;9.75;;
9970;SDS011;5026;51.494;11.974;2023-05-21T14:30:41;13.98;;;10.55;;
9970;SDS011;5026;51.494;11.974;2023-05-21T14:33:10;14.27;;;9.88;;
9970;SDS011;5026;51.494;11.974;2023-05-21T14:35:37;12.20;;;10.27;;
9970;SDS011;5026;51.494;11.974;2023-05-21T14:38:05;15.45;;;11.00;;
9970;SDS011;5026;51.494;11.974;2023-05-21T14:40:32;13.07;;;10.77;;
9970;SDS011;5026;51.494;11.974;2023-05-21T14:42:59;14.93;;;10.55;;
9970;SDS011;5026;51.494;11.974;2023-05-21T14:45:26;12.00;;;10.55;;
9970;SDS011;5026;51.494;11.974;2023-05-21T14:47:53;12.93;;;10.48;;
9970;SDS011;5026;51.494;11.974;2023-05-21T14:50:22;10.75;;;9.50;;
9970;SDS011;5026;51.494;11.974;2023-05-21T14:52:48;11.07;;;9.93;;
9970;SDS011;5026;51.494;11.974;2023-05-21T14:55:15;11.68;;;9.50;;
9970;SDS011;5026;51.494;11.974;2023-05-21T14:57:46;12.30;;;9.80;;